Couderay, WI (54828)

4:24 AM CDT on March 24, 2017 (GMT -0500)
Lake Site | | Change Station

Elev 1200 ft 45.82 °N, 91.54 °W | Updated 27 seconds ago

Overcast
Overcast
32.5 °F
Feels Like 32 °F
N
0.0
Wind Variable Wind from SSW

Today
High -- | Low -- °F
--% Chance of Precip.
Yesterday
High -- | Low -- °F
Precip. -- in
Pressure 29.87 in
Visibility 2.5 miles
Clouds Overcast 800 ft
Windchill 32 °F
Dew Point 32 °F
Humidity 98%
Rainfall 0.02 in
Snow Depth Not available.
7:00 AM 7:23 PM
Waning Crescent, 16% visible
SPECI KHYR 240918Z AUTO 03005KT 2 1/2SM BR OVC008 02/M01 A2987 RMK AO2 T00171006
Pressure 29.87 in
Visibility 2.5 miles
Clouds Overcast 800 ft
Windchill 32 °F
Dew Point 32 °F
Humidity 98%
Rainfall 0.02 in
Snow Depth Not available.
7:00 AM 7:23 PM
Waning Crescent, 16% visible
SPECI KHYR 240918Z AUTO 03005KT 2 1/2SM BR OVC008 02/M01 A2987 RMK AO2 T00171006

Get Severe Weather Alerts

Thanks for signing up!

Be on the lookout for a verification email in your inbox.

You'll start receiving the daily forecast at 8 AM.

×

10-Day Weather Forecast

Almanac

Astronomy

Mar. 24, 2017 Rise Set
Actual Time
Civil Twilight
Nautical Twilight
Astronomical Twilight
Moon
Length of Visible Light
Length of Day
Tomorrow will be .
, % of the Moon is Illuminated

Today's Extremes

State Highs State Lows

Community

WunderPhotos

Upload Photos

1,962,540 photos uploaded!

WunderBlog® & News

Nearby

Air Quality

  Air Quality AQ Index Pollutant
Not available.

Snow Depth

Station Depth Elevation

Earthquake Activity

City Distance Mag. Time & Date
Minimum magnitude displayed is 2.5.

Earthquake Activity

City Distance Mag. Time & Date
Minimum magnitude displayed is 2.5.

Coastal Water Temperatures

Place Temperature

Stations

Nearby Weather Stations

Station Location Temp. Windchill Dew Point Humidity Wind Precip. Elev Updated Type
                   

Watches & Warnings

There are currently no watches in effect.